RJSS(METAR)
08/12 21:00
METAR RJSS 121200Z 17010KT 9999 FEW010 BKN120 BKN/// 28/23 Q1007 RMK
1ST010 6AC120 A2975=
戻る
トップページへ戻る
IMOC Co,.Ltd.